sensor_id;sensor_type;location;lat;lon;timestamp;temperature;humidity
2202;DHT22;1107;48.654;9.250;2023-02-04T00:00:00;6.80;99.90
2202;DHT22;1107;48.654;9.250;2023-02-04T00:02:27;6.80;99.90
2202;DHT22;1107;48.654;9.250;2023-02-04T00:04:54;6.80;99.90
2202;DHT22;1107;48.654;9.250;2023-02-04T00:07:21;6.80;99.90
2202;DHT22;1107;48.654;9.250;2023-02-04T00:09:48;6.80;99.90
2202;DHT22;1107;48.654;9.250;2023-02-04T00:12:16;6.80;99.90
2202;DHT22;1107;48.654;9.250;2023-02-04T00:14:43;6.80;99.90
2202;DHT22;1107;48.654;9.250;2023-02-04T00:17:10;6.80;99.90
2202;DHT22;1107;48.654;9.250;2023-02-04T00:19:38;6.80;99.90
2202;DHT22;1107;48.654;9.250;2023-02-04T00:22:05;6.80;99.90
2202;DHT22;1107;48.654;9.250;2023-02-04T00:24:33;6.80;99.90
2202;DHT22;1107;48.654;9.250;2023-02-04T00:27:00;6.80;99.90
2202;DHT22;1107;48.654;9.250;2023-02-04T00:29:29;6.80;99.90
2202;DHT22;1107;48.654;9.250;2023-02-04T00:31:56;6.70;99.90
2202;DHT22;1107;48.654;9.250;2023-02-04T00:34:23;6.70;99.90
2202;DHT22;1107;48.654;9.250;2023-02-04T00:36:50;6.70;99.90
2202;DHT22;1107;48.654;9.250;2023-02-04T00:39:17;6.80;99.90
2202;DHT22;1107;48.654;9.250;2023-02-04T00:41:44;6.70;99.90
2202;DHT22;1107;48.654;9.250;2023-02-04T00:44:11;6.80;99.90
2202;DHT22;1107;48.654;9.250;2023-02-04T00:46:40;6.80;99.90
2202;DHT22;1107;48.654;9.250;2023-02-04T00:49:07;6.80;99.90
2202;DHT22;1107;48.654;9.250;2023-02-04T00:51:36;6.80;99.90
2202;DHT22;1107;48.654;9.250;2023-02-04T00:54:03;6.80;99.90
2202;DHT22;1107;48.654;9.250;2023-02-04T00:56:30;6.80;99.90
2202;DHT22;1107;48.654;9.250;2023-02-04T00:58:57;6.80;99.90
2202;DHT22;1107;48.654;9.250;2023-02-04T01:01:24;6.80;99.90
2202;DHT22;1107;48.654;9.250;2023-02-04T01:03:52;6.80;99.90
2202;DHT22;1107;48.654;9.250;2023-02-04T01:06:19;6.80;99.90
2202;DHT22;1107;48.654;9.250;2023-02-04T01:08:46;6.90;99.90
2202;DHT22;1107;48.654;9.250;2023-02-04T01:11:13;6.90;99.90
2202;DHT22;1107;48.654;9.250;2023-02-04T01:13:40;6.90;99.90
2202;DHT22;1107;48.654;9.250;2023-02-04T01:16:07;6.90;99.90
2202;DHT22;1107;48.654;9.250;2023-02-04T01:18:34;6.90;99.90
2202;DHT22;1107;48.654;9.250;2023-02-04T01:21:03;6.90;99.90
2202;DHT22;1107;48.654;9.250;2023-02-04T01:23:30;6.90;99.90
2202;DHT22;1107;48.654;9.250;2023-02-04T01:25:57;6.90;99.90
2202;DHT22;1107;48.654;9.250;2023-02-04T01:28:24;6.90;99.90
2202;DHT22;1107;48.654;9.250;2023-02-04T01:30:51;6.90;99.90
2202;DHT22;1107;48.654;9.250;2023-02-04T01:33:18;6.90;99.90
2202;DHT22;1107;48.654;9.250;2023-02-04T01:35:45;6.90;99.90
2202;DHT22;1107;48.654;9.250;2023-02-04T01:38:13;6.90;99.90
2202;DHT22;1107;48.654;9.250;2023-02-04T01:40:41;6.90;99.90
2202;DHT22;1107;48.654;9.250;2023-02-04T01:43:08;6.90;99.90
2202;DHT22;1107;48.654;9.250;2023-02-04T01:45:35;6.90;99.90
2202;DHT22;1107;48.654;9.250;2023-02-04T01:48:03;6.90;99.90
2202;DHT22;1107;48.654;9.250;2023-02-04T01:50:31;6.90;99.90
2202;DHT22;1107;48.654;9.250;2023-02-04T01:52:59;6.80;99.90
2202;DHT22;1107;48.654;9.250;2023-02-04T01:55:29;6.80;99.90
2202;DHT22;1107;48.654;9.250;2023-02-04T01:57:57;6.80;99.90
2202;DHT22;1107;48.654;9.250;2023-02-04T02:00:26;6.80;99.90
2202;DHT22;1107;48.654;9.250;2023-02-04T02:02:54;6.80;99.90
2202;DHT22;1107;48.654;9.250;2023-02-04T02:05:23;6.70;99.90
2202;DHT22;1107;48.654;9.250;2023-02-04T02:07:53;6.70;77.80
2202;DHT22;1107;48.654;9.250;2023-02-04T02:10:22;6.70;69.40
2202;DHT22;1107;48.654;9.250;2023-02-04T02:12:50;6.50;11.90
2202;DHT22;1107;48.654;9.250;2023-02-04T02:15:19;6.50;1.00
2202;DHT22;1107;48.654;9.250;2023-02-04T02:17:46;6.40;1.00
2202;DHT22;1107;48.654;9.250;2023-02-04T02:20:15;6.40;8.70
2202;DHT22;1107;48.654;9.250;2023-02-04T02:22:50;6.40;6.40
2202;DHT22;1107;48.654;9.250;2023-02-04T02:25:21;6.30;1.00
2202;DHT22;1107;48.654;9.250;2023-02-04T02:27:47;6.30;1.00
2202;DHT22;1107;48.654;9.250;2023-02-04T02:30:16;6.30;27.10
2202;DHT22;1107;48.654;9.250;2023-02-04T02:32:44;6.30;58.60
2202;DHT22;1107;48.654;9.250;2023-02-04T02:35:12;6.20;97.50
2202;DHT22;1107;48.654;9.250;2023-02-04T02:37:39;6.20;99.90
2202;DHT22;1107;48.654;9.250;2023-02-04T02:40:07;6.10;99.90
2202;DHT22;1107;48.654;9.250;2023-02-04T02:42:36;6.10;99.90
2202;DHT22;1107;48.654;9.250;2023-02-04T02:45:07;6.10;99.90
2202;DHT22;1107;48.654;9.250;2023-02-04T02:47:36;6.00;99.90
2202;DHT22;1107;48.654;9.250;2023-02-04T02:50:03;6.00;99.90
2202;DHT22;1107;48.654;9.250;2023-02-04T02:52:30;6.00;99.90
2202;DHT22;1107;48.654;9.250;2023-02-04T02:54:57;6.00;99.90
2202;DHT22;1107;48.654;9.250;2023-02-04T02:57:24;6.00;99.90
2202;DHT22;1107;48.654;9.250;2023-02-04T02:59:53;6.00;99.90
2202;DHT22;1107;48.654;9.250;2023-02-04T03:02:21;6.00;99.90
2202;DHT22;1107;48.654;9.250;2023-02-04T03:04:50;6.00;99.90
2202;DHT22;1107;48.654;9.250;2023-02-04T03:07:19;5.90;99.90
2202;DHT22;1107;48.654;9.250;2023-02-04T03:09:47;5.90;99.90
2202;DHT22;1107;48.654;9.250;2023-02-04T03:12:15;5.90;99.90
2202;DHT22;1107;48.654;9.250;2023-02-04T03:14:42;5.90;99.90
2202;DHT22;1107;48.654;9.250;2023-02-04T03:17:11;5.90;99.90
2202;DHT22;1107;48.654;9.250;2023-02-04T03:19:38;5.90;99.90
2202;DHT22;1107;48.654;9.250;2023-02-04T03:22:06;5.90;99.90
2202;DHT22;1107;48.654;9.250;2023-02-04T03:24:34;5.90;99.90
2202;DHT22;1107;48.654;9.250;2023-02-04T03:27:02;5.90;99.90
2202;DHT22;1107;48.654;9.250;2023-02-04T03:29:29;6.00;99.90
2202;DHT22;1107;48.654;9.250;2023-02-04T03:31:56;6.00;99.90
2202;DHT22;1107;48.654;9.250;2023-02-04T03:34:25;6.00;99.90
2202;DHT22;1107;48.654;9.250;2023-02-04T03:36:52;6.00;99.90
2202;DHT22;1107;48.654;9.250;2023-02-04T03:39:19;6.00;99.90
2202;DHT22;1107;48.654;9.250;2023-02-04T03:41:46;6.00;99.90
2202;DHT22;1107;48.654;9.250;2023-02-04T03:44:13;6.00;99.90
2202;DHT22;1107;48.654;9.250;2023-02-04T03:46:40;6.00;99.90
2202;DHT22;1107;48.654;9.250;2023-02-04T03:49:07;6.00;99.90
2202;DHT22;1107;48.654;9.250;2023-02-04T03:51:35;6.00;99.90
2202;DHT22;1107;48.654;9.250;2023-02-04T03:54:02;6.00;99.90
2202;DHT22;1107;48.654;9.250;2023-02-04T03:56:29;6.00;99.90
2202;DHT22;1107;48.654;9.250;2023-02-04T03:58:56;6.00;99.90
2202;DHT22;1107;48.654;9.250;2023-02-04T04:01:23;6.00;99.90
2202;DHT22;1107;48.654;9.250;2023-02-04T04:03:50;6.00;99.90
2202;DHT22;1107;48.654;9.250;2023-02-04T04:06:17;6.00;99.90
2202;DHT22;1107;48.654;9.250;2023-02-04T04:08:45;6.00;99.90
2202;DHT22;1107;48.654;9.250;2023-02-04T04:11:12;6.10;99.90
2202;DHT22;1107;48.654;9.250;2023-02-04T04:13:39;6.00;99.90
2202;DHT22;1107;48.654;9.250;2023-02-04T04:16:06;6.10;99.90
2202;DHT22;1107;48.654;9.250;2023-02-04T04:18:34;6.10;99.90
2202;DHT22;1107;48.654;9.250;2023-02-04T04:21:01;6.10;99.90
2202;DHT22;1107;48.654;9.250;2023-02-04T04:23:28;6.10;99.90
2202;DHT22;1107;48.654;9.250;2023-02-04T04:25:56;6.10;99.90
2202;DHT22;1107;48.654;9.250;2023-02-04T04:28:23;6.10;99.90
2202;DHT22;1107;48.654;9.250;2023-02-04T04:30:50;6.00;99.90
2202;DHT22;1107;48.654;9.250;2023-02-04T04:33:17;6.00;99.90
2202;DHT22;1107;48.654;9.250;2023-02-04T04:35:44;6.10;99.90
2202;DHT22;1107;48.654;9.250;2023-02-04T04:38:11;6.00;99.90
2202;DHT22;1107;48.654;9.250;2023-02-04T04:40:38;6.10;99.90
2202;DHT22;1107;48.654;9.250;2023-02-04T04:43:06;6.10;99.90
2202;DHT22;1107;48.654;9.250;2023-02-04T04:45:33;6.10;99.90
2202;DHT22;1107;48.654;9.250;2023-02-04T04:48:00;6.10;99.90
2202;DHT22;1107;48.654;9.250;2023-02-04T04:50:27;6.10;99.90
2202;DHT22;1107;48.654;9.250;2023-02-04T04:52:54;6.20;99.90
2202;DHT22;1107;48.654;9.250;2023-02-04T04:55:21;6.10;99.90
2202;DHT22;1107;48.654;9.250;2023-02-04T04:57:47;6.10;99.90
2202;DHT22;1107;48.654;9.250;2023-02-04T05:00:18;6.10;99.90
2202;DHT22;1107;48.654;9.250;2023-02-04T05:02:45;6.10;99.90
2202;DHT22;1107;48.654;9.250;2023-02-04T05:05:12;6.00;99.90
2202;DHT22;1107;48.654;9.250;2023-02-04T05:07:39;6.00;99.90
2202;DHT22;1107;48.654;9.250;2023-02-04T05:10:07;6.00;99.90
2202;DHT22;1107;48.654;9.250;2023-02-04T05:12:34;6.00;99.90
2202;DHT22;1107;48.654;9.250;2023-02-04T05:15:01;6.00;99.90
2202;DHT22;1107;48.654;9.250;2023-02-04T05:17:30;6.00;99.90
2202;DHT22;1107;48.654;9.250;2023-02-04T05:19:56;6.10;99.90
2202;DHT22;1107;48.654;9.250;2023-02-04T05:22:23;6.10;99.90
2202;DHT22;1107;48.654;9.250;2023-02-04T05:24:50;6.10;99.90
2202;DHT22;1107;48.654;9.250;2023-02-04T05:27:17;6.00;99.90
2202;DHT22;1107;48.654;9.250;2023-02-04T05:29:44;6.00;99.90
2202;DHT22;1107;48.654;9.250;2023-02-04T05:32:11;6.00;99.90
2202;DHT22;1107;48.654;9.250;2023-02-04T05:34:39;6.00;99.90
2202;DHT22;1107;48.654;9.250;2023-02-04T05:37:06;6.00;99.90
2202;DHT22;1107;48.654;9.250;2023-02-04T05:39:33;6.00;99.90
2202;DHT22;1107;48.654;9.250;2023-02-04T05:42:00;5.90;99.90
2202;DHT22;1107;48.654;9.250;2023-02-04T05:44:27;5.80;99.90
2202;DHT22;1107;48.654;9.250;2023-02-04T05:46:54;5.80;99.90
2202;DHT22;1107;48.654;9.250;2023-02-04T05:49:21;5.90;99.90
2202;DHT22;1107;48.654;9.250;2023-02-04T05:51:50;5.90;99.90
2202;DHT22;1107;48.654;9.250;2023-02-04T05:54:17;5.90;99.90
2202;DHT22;1107;48.654;9.250;2023-02-04T05:56:45;5.90;99.90
2202;DHT22;1107;48.654;9.250;2023-02-04T05:59:12;5.90;99.90
2202;DHT22;1107;48.654;9.250;2023-02-04T06:01:39;5.90;99.90
2202;DHT22;1107;48.654;9.250;2023-02-04T06:04:06;5.90;99.90
2202;DHT22;1107;48.654;9.250;2023-02-04T06:06:33;5.80;99.90
2202;DHT22;1107;48.654;9.250;2023-02-04T06:09:01;5.80;99.90
2202;DHT22;1107;48.654;9.250;2023-02-04T06:11:28;5.80;99.90
2202;DHT22;1107;48.654;9.250;2023-02-04T06:13:55;5.80;99.90
2202;DHT22;1107;48.654;9.250;2023-02-04T06:16:22;5.80;99.90
2202;DHT22;1107;48.654;9.250;2023-02-04T06:18:49;5.80;99.90
2202;DHT22;1107;48.654;9.250;2023-02-04T06:21:16;5.80;99.90
2202;DHT22;1107;48.654;9.250;2023-02-04T06:23:43;5.80;99.90
2202;DHT22;1107;48.654;9.250;2023-02-04T06:26:11;5.70;99.90
2202;DHT22;1107;48.654;9.250;2023-02-04T06:28:38;5.70;99.90
2202;DHT22;1107;48.654;9.250;2023-02-04T06:31:05;5.70;99.90
2202;DHT22;1107;48.654;9.250;2023-02-04T06:33:33;5.70;99.90
2202;DHT22;1107;48.654;9.250;2023-02-04T06:36:00;5.70;99.90
2202;DHT22;1107;48.654;9.250;2023-02-04T06:38:27;5.70;99.90
2202;DHT22;1107;48.654;9.250;2023-02-04T06:40:54;5.70;99.90
2202;DHT22;1107;48.654;9.250;2023-02-04T06:43:23;5.70;99.90
2202;DHT22;1107;48.654;9.250;2023-02-04T06:45:52;5.70;99.90
2202;DHT22;1107;48.654;9.250;2023-02-04T06:48:19;5.80;99.90
2202;DHT22;1107;48.654;9.250;2023-02-04T06:50:46;5.80;99.90
2202;DHT22;1107;48.654;9.250;2023-02-04T06:53:13;5.80;99.90
2202;DHT22;1107;48.654;9.250;2023-02-04T06:55:40;5.80;99.90
2202;DHT22;1107;48.654;9.250;2023-02-04T06:58:07;5.70;99.90
2202;DHT22;1107;48.654;9.250;2023-02-04T07:00:35;5.70;99.90
2202;DHT22;1107;48.654;9.250;2023-02-04T07:03:02;5.70;99.90
2202;DHT22;1107;48.654;9.250;2023-02-04T07:05:32;5.60;99.90
2202;DHT22;1107;48.654;9.250;2023-02-04T07:07:59;5.60;99.90
2202;DHT22;1107;48.654;9.250;2023-02-04T07:10:26;5.60;99.90
2202;DHT22;1107;48.654;9.250;2023-02-04T07:12:53;5.60;99.90
2202;DHT22;1107;48.654;9.250;2023-02-04T07:15:20;5.60;99.90
2202;DHT22;1107;48.654;9.250;2023-02-04T07:17:48;5.60;99.90
2202;DHT22;1107;48.654;9.250;2023-02-04T07:20:16;5.60;99.90
2202;DHT22;1107;48.654;9.250;2023-02-04T07:22:43;5.70;99.90
2202;DHT22;1107;48.654;9.250;2023-02-04T07:25:10;5.70;98.90
2202;DHT22;1107;48.654;9.250;2023-02-04T07:27:39;5.70;99.90
2202;DHT22;1107;48.654;9.250;2023-02-04T07:30:07;5.70;99.90
2202;DHT22;1107;48.654;9.250;2023-02-04T07:32:34;5.70;89.40
2202;DHT22;1107;48.654;9.250;2023-02-04T07:35:03;5.80;91.50
2202;DHT22;1107;48.654;9.250;2023-02-04T07:37:30;5.80;99.90
2202;DHT22;1107;48.654;9.250;2023-02-04T07:39:57;5.80;83.20
2202;DHT22;1107;48.654;9.250;2023-02-04T07:42:24;5.80;82.90
2202;DHT22;1107;48.654;9.250;2023-02-04T07:44:51;5.80;79.00
2202;DHT22;1107;48.654;9.250;2023-02-04T07:47:18;5.80;60.60
2202;DHT22;1107;48.654;9.250;2023-02-04T07:49:45;5.90;68.10
2202;DHT22;1107;48.654;9.250;2023-02-04T07:52:13;5.90;71.50
2202;DHT22;1107;48.654;9.250;2023-02-04T07:54:40;5.90;65.00
2202;DHT22;1107;48.654;9.250;2023-02-04T07:57:07;6.00;79.80
2202;DHT22;1107;48.654;9.250;2023-02-04T07:59:34;6.00;54.30
2202;DHT22;1107;48.654;9.250;2023-02-04T08:02:01;6.00;46.50
2202;DHT22;1107;48.654;9.250;2023-02-04T08:04:28;6.00;41.10
2202;DHT22;1107;48.654;9.250;2023-02-04T08:06:55;6.00;34.10
2202;DHT22;1107;48.654;9.250;2023-02-04T08:09:23;6.00;25.10
2202;DHT22;1107;48.654;9.250;2023-02-04T08:11:51;6.10;22.40
2202;DHT22;1107;48.654;9.250;2023-02-04T08:14:18;6.10;32.30
2202;DHT22;1107;48.654;9.250;2023-02-04T08:16:45;6.10;16.60
2202;DHT22;1107;48.654;9.250;2023-02-04T08:19:12;6.10;11.40
2202;DHT22;1107;48.654;9.250;2023-02-04T08:21:43;6.20;10.50
2202;DHT22;1107;48.654;9.250;2023-02-04T08:24:10;6.30;1.00
2202;DHT22;1107;48.654;9.250;2023-02-04T08:26:39;6.40;1.00
2202;DHT22;1107;48.654;9.250;2023-02-04T08:29:06;6.40;1.00
2202;DHT22;1107;48.654;9.250;2023-02-04T08:31:36;6.50;1.00
2202;DHT22;1107;48.654;9.250;2023-02-04T08:34:05;6.60;1.00
2202;DHT22;1107;48.654;9.250;2023-02-04T08:36:34;6.70;1.00
2202;DHT22;1107;48.654;9.250;2023-02-04T08:39:01;6.70;1.00
2202;DHT22;1107;48.654;9.250;2023-02-04T08:41:29;6.70;1.00
2202;DHT22;1107;48.654;9.250;2023-02-04T08:43:59;6.80;1.00
2202;DHT22;1107;48.654;9.250;2023-02-04T08:46:26;6.80;1.00
2202;DHT22;1107;48.654;9.250;2023-02-04T08:48:53;6.80;1.00
2202;DHT22;1107;48.654;9.250;2023-02-04T08:51:20;6.80;1.00
2202;DHT22;1107;48.654;9.250;2023-02-04T08:53:47;6.80;1.00
2202;DHT22;1107;48.654;9.250;2023-02-04T08:56:13;6.80;1.00
2202;DHT22;1107;48.654;9.250;2023-02-04T08:58:45;6.90;1.00
2202;DHT22;1107;48.654;9.250;2023-02-04T09:01:14;6.90;1.00
2202;DHT22;1107;48.654;9.250;2023-02-04T09:03:41;6.90;1.00
2202;DHT22;1107;48.654;9.250;2023-02-04T09:06:08;7.00;1.00
2202;DHT22;1107;48.654;9.250;2023-02-04T09:08:35;7.40;1.00
2202;DHT22;1107;48.654;9.250;2023-02-04T09:11:02;8.30;1.00
2202;DHT22;1107;48.654;9.250;2023-02-04T09:13:30;8.80;1.00
2202;DHT22;1107;48.654;9.250;2023-02-04T09:15:57;9.00;1.00
2202;DHT22;1107;48.654;9.250;2023-02-04T09:18:25;9.00;1.00
2202;DHT22;1107;48.654;9.250;2023-02-04T09:20:52;8.90;1.00
2202;DHT22;1107;48.654;9.250;2023-02-04T09:23:19;8.90;1.00
2202;DHT22;1107;48.654;9.250;2023-02-04T09:25:47;8.80;99.90
2202;DHT22;1107;48.654;9.250;2023-02-04T09:28:14;8.60;99.90
2202;DHT22;1107;48.654;9.250;2023-02-04T09:30:44;8.50;99.90
2202;DHT22;1107;48.654;9.250;2023-02-04T09:33:12;8.50;99.90
2202;DHT22;1107;48.654;9.250;2023-02-04T09:35:41;8.50;1.00
2202;DHT22;1107;48.654;9.250;2023-02-04T09:38:07;8.80;1.00
2202;DHT22;1107;48.654;9.250;2023-02-04T09:40:39;9.10;99.90
2202;DHT22;1107;48.654;9.250;2023-02-04T09:43:12;9.70;99.90
2202;DHT22;1107;48.654;9.250;2023-02-04T09:45:40;9.90;1.00
2202;DHT22;1107;48.654;9.250;2023-02-04T09:48:10;10.10;1.00
2202;DHT22;1107;48.654;9.250;2023-02-04T09:50:40;10.30;99.90
2202;DHT22;1107;48.654;9.250;2023-02-04T09:53:12;11.10;99.90
2202;DHT22;1107;48.654;9.250;2023-02-04T09:55:43;11.50;1.00
2202;DHT22;1107;48.654;9.250;2023-02-04T09:58:13;12.10;1.00
2202;DHT22;1107;48.654;9.250;2023-02-04T10:00:41;12.00;1.00
2202;DHT22;1107;48.654;9.250;2023-02-04T10:03:14;12.00;1.00
2202;DHT22;1107;48.654;9.250;2023-02-04T10:05:44;12.00;1.00
2202;DHT22;1107;48.654;9.250;2023-02-04T10:08:28;11.90;1.00
2202;DHT22;1107;48.654;9.250;2023-02-04T10:10:55;12.70;1.00
2202;DHT22;1107;48.654;9.250;2023-02-04T10:13:29;12.50;1.00
2202;DHT22;1107;48.654;9.250;2023-02-04T10:15:58;12.90;1.00
2202;DHT22;1107;48.654;9.250;2023-02-04T10:21:38;13.00;1.00
2202;DHT22;1107;48.654;9.250;2023-02-04T10:24:12;13.40;1.00
2202;DHT22;1107;48.654;9.250;2023-02-04T10:26:40;14.40;1.00
2202;DHT22;1107;48.654;9.250;2023-02-04T10:29:12;14.20;99.90
2202;DHT22;1107;48.654;9.250;2023-02-04T10:31:41;14.40;99.90
2202;DHT22;1107;48.654;9.250;2023-02-04T10:34:14;16.00;99.90
2202;DHT22;1107;48.654;9.250;2023-02-04T10:36:43;17.10;99.90
2202;DHT22;1107;48.654;9.250;2023-02-04T10:39:13;17.90;99.90
2202;DHT22;1107;48.654;9.250;2023-02-04T10:41:46;18.40;99.90
2202;DHT22;1107;48.654;9.250;2023-02-04T10:44:15;19.60;99.90
2202;DHT22;1107;48.654;9.250;2023-02-04T10:46:42;18.80;99.90
2202;DHT22;1107;48.654;9.250;2023-02-04T10:49:18;17.00;99.90
2202;DHT22;1107;48.654;9.250;2023-02-04T10:51:48;15.50;99.90
2202;DHT22;1107;48.654;9.250;2023-02-04T10:54:15;14.00;99.90
2202;DHT22;1107;48.654;9.250;2023-02-04T10:56:59;13.20;99.90
2202;DHT22;1107;48.654;9.250;2023-02-04T10:59:30;12.70;99.90
2202;DHT22;1107;48.654;9.250;2023-02-04T11:02:00;12.60;99.90
2202;DHT22;1107;48.654;9.250;2023-02-04T11:04:27;14.80;99.90
2202;DHT22;1107;48.654;9.250;2023-02-04T11:06:55;17.10;99.90
2202;DHT22;1107;48.654;9.250;2023-02-04T11:09:22;19.20;99.90
2202;DHT22;1107;48.654;9.250;2023-02-04T11:11:50;21.10;99.90
2202;DHT22;1107;48.654;9.250;2023-02-04T11:14:25;21.30;99.90
2202;DHT22;1107;48.654;9.250;2023-02-04T11:16:54;19.50;99.90
2202;DHT22;1107;48.654;9.250;2023-02-04T11:19:33;17.80;99.90
2202;DHT22;1107;48.654;9.250;2023-02-04T11:22:17;16.20;99.90
2202;DHT22;1107;48.654;9.250;2023-02-04T11:24:46;14.90;99.90
2202;DHT22;1107;48.654;9.250;2023-02-04T11:27:20;13.80;99.90
2202;DHT22;1107;48.654;9.250;2023-02-04T11:29:47;13.00;99.90
2202;DHT22;1107;48.654;9.250;2023-02-04T11:32:29;12.50;99.90
2202;DHT22;1107;48.654;9.250;2023-02-04T11:35:07;12.00;99.90
2202;DHT22;1107;48.654;9.250;2023-02-04T11:37:44;11.60;99.90
2202;DHT22;1107;48.654;9.250;2023-02-04T11:40:29;11.30;99.90
2202;DHT22;1107;48.654;9.250;2023-02-04T11:42:59;11.10;99.90
2202;DHT22;1107;48.654;9.250;2023-02-04T11:45:30;11.10;99.90
2202;DHT22;1107;48.654;9.250;2023-02-04T11:47:59;11.40;1.00
2202;DHT22;1107;48.654;9.250;2023-02-04T11:50:29;11.70;99.90
2202;DHT22;1107;48.654;9.250;2023-02-04T11:52:59;12.20;99.90
2202;DHT22;1107;48.654;9.250;2023-02-04T11:55:28;12.30;99.90
2202;DHT22;1107;48.654;9.250;2023-02-04T11:57:55;12.30;99.90
2202;DHT22;1107;48.654;9.250;2023-02-04T12:00:24;12.20;99.90
2202;DHT22;1107;48.654;9.250;2023-02-04T12:02:55;12.10;99.90
2202;DHT22;1107;48.654;9.250;2023-02-04T12:05:34;13.00;99.90
2202;DHT22;1107;48.654;9.250;2023-02-04T12:08:11;15.30;99.90
2202;DHT22;1107;48.654;9.250;2023-02-04T12:10:38;16.60;99.90
2202;DHT22;1107;48.654;9.250;2023-02-04T12:13:17;16.70;99.90
2202;DHT22;1107;48.654;9.250;2023-02-04T12:15:53;16.40;99.90
2202;DHT22;1107;48.654;9.250;2023-02-04T12:18:21;16.00;99.90
2202;DHT22;1107;48.654;9.250;2023-02-04T12:20:47;15.60;99.90
2202;DHT22;1107;48.654;9.250;2023-02-04T12:23:16;15.20;99.90
2202;DHT22;1107;48.654;9.250;2023-02-04T12:25:43;14.50;99.90
2202;DHT22;1107;48.654;9.250;2023-02-04T12:28:10;14.40;99.90
2202;DHT22;1107;48.654;9.250;2023-02-04T12:30:36;13.80;99.90
2202;DHT22;1107;48.654;9.250;2023-02-04T12:33:03;13.30;99.90
2202;DHT22;1107;48.654;9.250;2023-02-04T12:35:31;12.60;99.90
2202;DHT22;1107;48.654;9.250;2023-02-04T12:37:58;11.80;99.90
2202;DHT22;1107;48.654;9.250;2023-02-04T12:40:26;11.30;99.90
2202;DHT22;1107;48.654;9.250;2023-02-04T12:42:53;10.60;99.90
2202;DHT22;1107;48.654;9.250;2023-02-04T12:45:20;10.10;1.00
2202;DHT22;1107;48.654;9.250;2023-02-04T12:47:47;9.80;1.00
2202;DHT22;1107;48.654;9.250;2023-02-04T12:50:17;9.60;1.00
2202;DHT22;1107;48.654;9.250;2023-02-04T12:52:48;9.50;1.00
2202;DHT22;1107;48.654;9.250;2023-02-04T12:55:15;9.50;1.00
2202;DHT22;1107;48.654;9.250;2023-02-04T12:57:44;9.60;1.00
2202;DHT22;1107;48.654;9.250;2023-02-04T13:00:12;9.70;1.00
2202;DHT22;1107;48.654;9.250;2023-02-04T13:02:40;9.90;1.00
2202;DHT22;1107;48.654;9.250;2023-02-04T13:05:07;10.10;1.00
2202;DHT22;1107;48.654;9.250;2023-02-04T13:07:34;10.20;1.00
2202;DHT22;1107;48.654;9.250;2023-02-04T13:10:02;10.40;1.00
2202;DHT22;1107;48.654;9.250;2023-02-04T13:12:29;12.10;1.00
2202;DHT22;1107;48.654;9.250;2023-02-04T13:14:57;12.70;1.00
2202;DHT22;1107;48.654;9.250;2023-02-04T13:17:24;13.50;99.90
2202;DHT22;1107;48.654;9.250;2023-02-04T13:19:52;14.50;99.90
2202;DHT22;1107;48.654;9.250;2023-02-04T13:22:19;14.80;99.90
2202;DHT22;1107;48.654;9.250;2023-02-04T13:24:46;15.80;99.90
2202;DHT22;1107;48.654;9.250;2023-02-04T13:27:13;16.70;99.90
2202;DHT22;1107;48.654;9.250;2023-02-04T13:29:40;16.70;99.90
2202;DHT22;1107;48.654;9.250;2023-02-04T13:32:08;16.50;99.90
2202;DHT22;1107;48.654;9.250;2023-02-04T13:34:35;15.60;99.90
2202;DHT22;1107;48.654;9.250;2023-02-04T13:37:02;14.80;99.90
2202;DHT22;1107;48.654;9.250;2023-02-04T13:39:29;14.00;99.90
2202;DHT22;1107;48.654;9.250;2023-02-04T13:41:56;13.20;99.90
2202;DHT22;1107;48.654;9.250;2023-02-04T13:44:23;12.70;99.90
2202;DHT22;1107;48.654;9.250;2023-02-04T13:46:50;12.30;99.90
2202;DHT22;1107;48.654;9.250;2023-02-04T13:49:18;11.90;99.90
2202;DHT22;1107;48.654;9.250;2023-02-04T13:51:46;11.50;99.90
2202;DHT22;1107;48.654;9.250;2023-02-04T13:54:13;11.20;99.90
2202;DHT22;1107;48.654;9.250;2023-02-04T14:03:15;10.10;99.90
2202;DHT22;1107;48.654;9.250;2023-02-04T14:05:43;9.80;1.00
2202;DHT22;1107;48.654;9.250;2023-02-04T14:08:10;9.50;1.00
2202;DHT22;1107;48.654;9.250;2023-02-04T14:10:37;9.30;1.00
2202;DHT22;1107;48.654;9.250;2023-02-04T14:13:04;9.30;1.00
2202;DHT22;1107;48.654;9.250;2023-02-04T14:15:31;9.20;1.00
2202;DHT22;1107;48.654;9.250;2023-02-04T14:17:59;9.20;1.00
2202;DHT22;1107;48.654;9.250;2023-02-04T14:20:26;9.10;1.00
2202;DHT22;1107;48.654;9.250;2023-02-04T14:22:54;9.00;1.00
2202;DHT22;1107;48.654;9.250;2023-02-04T14:25:21;9.00;1.00
2202;DHT22;1107;48.654;9.250;2023-02-04T14:27:49;9.10;1.00
2202;DHT22;1107;48.654;9.250;2023-02-04T14:30:17;9.20;1.00
2202;DHT22;1107;48.654;9.250;2023-02-04T14:32:45;9.40;1.00
2202;DHT22;1107;48.654;9.250;2023-02-04T14:35:12;9.50;1.00
2202;DHT22;1107;48.654;9.250;2023-02-04T14:37:39;9.50;1.00
2202;DHT22;1107;48.654;9.250;2023-02-04T14:40:09;9.70;1.00
2202;DHT22;1107;48.654;9.250;2023-02-04T14:42:37;11.00;1.00
2202;DHT22;1107;48.654;9.250;2023-02-04T14:45:04;11.80;1.00
2202;DHT22;1107;48.654;9.250;2023-02-04T14:47:32;13.00;99.90
2202;DHT22;1107;48.654;9.250;2023-02-04T14:49:59;14.30;99.90
2202;DHT22;1107;48.654;9.250;2023-02-04T14:52:26;15.10;99.90
2202;DHT22;1107;48.654;9.250;2023-02-04T14:54:53;15.50;99.90
2202;DHT22;1107;48.654;9.250;2023-02-04T14:57:21;14.80;99.90
2202;DHT22;1107;48.654;9.250;2023-02-04T14:59:49;14.50;99.90
2202;DHT22;1107;48.654;9.250;2023-02-04T15:02:16;14.50;99.90
2202;DHT22;1107;48.654;9.250;2023-02-04T15:04:44;15.00;99.90
2202;DHT22;1107;48.654;9.250;2023-02-04T15:07:11;15.40;99.90
2202;DHT22;1107;48.654;9.250;2023-02-04T15:09:38;15.60;99.90
2202;DHT22;1107;48.654;9.250;2023-02-04T15:12:05;15.60;99.90
2202;DHT22;1107;48.654;9.250;2023-02-04T15:14:33;15.70;99.90
2202;DHT22;1107;48.654;9.250;2023-02-04T15:17:00;15.80;99.90
2202;DHT22;1107;48.654;9.250;2023-02-04T15:19:27;16.10;99.90
2202;DHT22;1107;48.654;9.250;2023-02-04T15:21:54;16.00;99.90
2202;DHT22;1107;48.654;9.250;2023-02-04T15:24:21;15.90;99.90
2202;DHT22;1107;48.654;9.250;2023-02-04T15:26:50;15.90;99.90
2202;DHT22;1107;48.654;9.250;2023-02-04T15:29:17;15.10;99.90
2202;DHT22;1107;48.654;9.250;2023-02-04T15:31:46;14.00;99.90
2202;DHT22;1107;48.654;9.250;2023-02-04T15:34:12;12.80;99.90
2202;DHT22;1107;48.654;9.250;2023-02-04T15:36:39;11.80;99.90
2202;DHT22;1107;48.654;9.250;2023-02-04T15:39:06;11.10;99.90
2202;DHT22;1107;48.654;9.250;2023-02-04T15:41:33;10.40;99.90
2202;DHT22;1107;48.654;9.250;2023-02-04T15:44:00;9.90;99.90
2202;DHT22;1107;48.654;9.250;2023-02-04T15:46:28;9.50;99.90
2202;DHT22;1107;48.654;9.250;2023-02-04T15:48:57;9.10;1.00
2202;DHT22;1107;48.654;9.250;2023-02-04T15:51:24;8.70;1.00
2202;DHT22;1107;48.654;9.250;2023-02-04T15:53:51;8.50;1.00
2202;DHT22;1107;48.654;9.250;2023-02-04T15:56:18;8.30;1.00
2202;DHT22;1107;48.654;9.250;2023-02-04T15:58:45;8.20;1.00
2202;DHT22;1107;48.654;9.250;2023-02-04T16:01:12;8.00;76.10
2202;DHT22;1107;48.654;9.250;2023-02-04T16:03:40;7.90;91.70
2202;DHT22;1107;48.654;9.250;2023-02-04T16:06:11;7.90;99.90
2202;DHT22;1107;48.654;9.250;2023-02-04T16:08:38;7.90;99.90
2202;DHT22;1107;48.654;9.250;2023-02-04T16:11:05;7.80;99.90
2202;DHT22;1107;48.654;9.250;2023-02-04T16:13:32;7.70;99.90
2202;DHT22;1107;48.654;9.250;2023-02-04T16:16:00;7.70;99.90
2202;DHT22;1107;48.654;9.250;2023-02-04T16:18:27;7.70;99.90
2202;DHT22;1107;48.654;9.250;2023-02-04T16:20:53;7.60;99.90
2202;DHT22;1107;48.654;9.250;2023-02-04T16:23:22;7.50;99.90
2202;DHT22;1107;48.654;9.250;2023-02-04T16:25:49;7.50;99.90
2202;DHT22;1107;48.654;9.250;2023-02-04T16:28:16;7.40;1.00
2202;DHT22;1107;48.654;9.250;2023-02-04T16:30:43;7.40;1.00